createdAt,value
2023-04-19T00:15:19.209Z,1010.5
2023-04-19T00:30:39.182Z,1010.4
2023-04-19T00:46:00.152Z,1010.5
2023-04-19T01:01:21.000Z,1010.4
2023-04-19T01:16:42.085Z,1010.3
2023-04-19T01:32:03.039Z,1010.3
2023-04-19T01:47:24.020Z,1010.2
2023-04-19T02:02:44.985Z,1010.1
2023-04-19T02:18:05.000Z,1010.1
2023-04-19T02:33:26.000Z,1010
2023-04-19T02:48:47.893Z,1010
2023-04-19T03:04:08.867Z,1009.9
2023-04-19T03:19:29.821Z,1009.8
2023-04-19T03:34:50.800Z,1009.7
2023-04-19T03:50:10.732Z,1009.7
2023-04-19T04:05:31.668Z,1009.6
2023-04-19T04:20:52.595Z,1009.6
2023-04-19T04:36:13.517Z,1009.7
2023-04-19T04:51:34.429Z,1009.6
2023-04-19T05:06:55.371Z,1009.7
2023-04-19T05:22:16.288Z,1009.6
2023-04-19T05:37:37.199Z,1009.6
2023-04-19T05:52:58.122Z,1009.6
2023-04-19T06:08:19.071Z,1009.6
2023-04-19T06:23:39.984Z,1009.5
2023-04-19T06:39:00.928Z,1009.2
2023-04-19T06:54:21.846Z,1009
2023-04-19T07:09:41.000Z,1009
2023-04-19T07:25:02.738Z,1008.7
2023-04-19T07:40:23.640Z,1008.7
2023-04-19T07:41:44.732Z,1008.7
2023-04-19T07:43:05.000Z,1008.7
2023-04-19T07:44:26.885Z,1008.7
2023-04-19T07:45:47.000Z,1008.7
2023-04-19T07:47:09.036Z,1008.7
2023-04-19T07:48:30.120Z,1008.7
2023-04-19T07:49:51.204Z,1008.7
2023-04-19T07:51:12.284Z,1008.7
2023-04-19T07:52:33.363Z,1008.7
2023-04-19T07:53:54.423Z,1008.7
2023-04-19T07:55:14.533Z,1008.7
2023-04-19T07:56:35.599Z,1008.7
2023-04-19T07:57:56.667Z,1008.6
2023-04-19T07:59:17.000Z,1008.7
2023-04-19T08:00:38.821Z,1008.7
2023-04-19T08:01:59.000Z,1008.7
2023-04-19T08:03:20.987Z,1008.7
2023-04-19T08:04:42.000Z,1008.7
2023-04-19T08:06:03.143Z,1008.7
2023-04-19T08:07:24.205Z,1008.7
2023-04-19T08:08:45.305Z,1008.7
2023-04-19T08:10:06.000Z,1008.7
2023-04-19T08:11:27.464Z,1008.8
2023-04-19T08:12:47.555Z,1008.8
2023-04-19T08:14:08.615Z,1008.8
2023-04-19T08:15:29.000Z,1008.8
2023-04-19T08:16:50.772Z,1008.8
2023-04-19T08:18:11.000Z,1008.8
2023-04-19T08:19:32.923Z,1008.8
2023-04-19T08:20:54.004Z,1008.7
2023-04-19T08:22:15.077Z,1008.8
2023-04-19T08:23:36.000Z,1008.8
2023-04-19T08:24:57.212Z,1008.8
2023-04-19T08:26:18.000Z,1008.8
2023-04-19T08:27:39.361Z,1008.8
2023-04-19T08:29:00.000Z,1008.8
2023-04-19T08:30:20.541Z,1008.8
2023-04-19T08:31:41.000Z,1008.7
2023-04-19T08:33:02.676Z,1008.6
2023-04-19T08:34:23.000Z,1008.7
2023-04-19T08:35:44.815Z,1008.7
2023-04-19T08:37:05.887Z,1008.6
2023-04-19T08:38:26.945Z,1008.6
2023-04-19T08:39:47.995Z,1008.6
2023-04-19T08:41:09.070Z,1008.6
2023-04-19T08:42:30.152Z,1008.6
2023-04-19T08:43:51.215Z,1008.6
2023-04-19T08:45:12.272Z,1008.5
2023-04-19T08:46:33.344Z,1008.6
2023-04-19T08:47:53.424Z,1008.5
2023-04-19T08:49:14.482Z,1008.5
2023-04-19T08:50:35.546Z,1008.5
2023-04-19T08:51:56.626Z,1008.5
2023-04-19T08:53:17.673Z,1008.5
2023-04-19T08:54:38.739Z,1008.5
2023-04-19T08:55:59.798Z,1008.5
2023-04-19T08:57:20.876Z,1008.4
2023-04-19T08:58:41.927Z,1008.5
2023-04-19T09:00:03.020Z,1008.4
2023-04-19T09:01:24.063Z,1008.4
2023-04-19T09:02:45.133Z,1008.4
2023-04-19T09:04:06.214Z,1008.4
2023-04-19T09:05:26.293Z,1008.4
2023-04-19T09:06:47.000Z,1008.3
2023-04-19T09:08:08.425Z,1008.4
2023-04-19T09:09:29.479Z,1008.4
2023-04-19T09:10:50.573Z,1008.4
2023-04-19T09:12:11.000Z,1008.4
2023-04-19T09:13:32.699Z,1008.4
2023-04-19T09:14:53.767Z,1008.3
2023-04-19T09:16:14.830Z,1008.3
2023-04-19T09:17:35.000Z,1008.3
2023-04-19T09:18:56.970Z,1008.3
2023-04-19T09:20:18.018Z,1008.2
2023-04-19T09:21:39.103Z,1008.3
2023-04-19T09:22:59.000Z,1008.2
2023-04-19T09:24:20.239Z,1008.2
2023-04-19T09:25:41.314Z,1008.2
2023-04-19T09:27:02.386Z,1008.2
2023-04-19T09:28:23.443Z,1008.2
2023-04-19T09:29:44.511Z,1008.1
2023-04-19T09:31:05.578Z,1008.1
2023-04-19T09:32:26.638Z,1008.1
2023-04-19T09:33:47.710Z,1008.1
2023-04-19T09:35:08.774Z,1008.1
2023-04-19T09:36:29.847Z,1008
2023-04-19T09:37:50.897Z,1008.1
2023-04-19T09:39:11.975Z,1008
2023-04-19T09:40:32.051Z,1008
2023-04-19T09:41:53.000Z,1008
2023-04-19T09:43:14.188Z,1008.1
2023-04-19T09:44:35.000Z,1008
2023-04-19T09:45:56.000Z,1008
2023-04-19T09:47:17.380Z,1008
2023-04-19T09:48:38.451Z,1008
2023-04-19T09:49:59.523Z,1007.9
2023-04-19T09:51:20.576Z,1007.9
2023-04-19T09:52:41.658Z,1007.9
2023-04-19T09:54:02.713Z,1007.9
2023-04-19T09:55:23.782Z,1007.9
2023-04-19T09:56:44.856Z,1007.9
2023-04-19T09:58:04.924Z,1007.9
2023-04-19T09:59:25.997Z,1007.8
2023-04-19T10:00:47.067Z,1007.8
2023-04-19T10:02:08.121Z,1007.8
2023-04-19T10:03:29.000Z,1007.7
2023-04-19T10:04:50.257Z,1007.7
2023-04-19T10:06:11.000Z,1007.8
2023-04-19T10:07:32.400Z,1007.7
2023-04-19T10:08:53.468Z,1007.6
2023-04-19T10:10:14.531Z,1007.6
2023-04-19T10:11:35.604Z,1007.6
2023-04-19T10:12:56.000Z,1007.5
2023-04-19T10:14:17.000Z,1007.5
2023-04-19T10:15:37.820Z,1007.5
2023-04-19T10:16:58.000Z,1007.5
2023-04-19T10:18:19.931Z,1007.5
2023-04-19T10:19:41.008Z,1007.4
2023-04-19T10:22:23.153Z,1007.4
2023-04-19T10:23:44.204Z,1007.4
2023-04-19T10:25:05.000Z,1007.4
2023-04-19T10:26:26.339Z,1007.4
2023-04-19T10:27:47.000Z,1007.3
2023-04-19T10:29:08.487Z,1007.3
2023-04-19T10:30:29.548Z,1007.3
2023-04-19T10:31:50.591Z,1007.3
2023-04-19T10:33:10.690Z,1007.3
2023-04-19T10:35:52.817Z,1007.3
2023-04-19T10:37:13.894Z,1007.3
2023-04-19T10:38:34.000Z,1007.2
2023-04-19T10:39:56.017Z,1007.2
2023-04-19T10:42:38.166Z,1007.1
2023-04-19T10:43:58.000Z,1007.2
2023-04-19T10:45:18.336Z,1007.2
2023-04-19T10:46:38.421Z,1007.1
2023-04-19T10:47:58.498Z,1007.2
2023-04-19T10:49:18.578Z,1007.1
2023-04-19T10:50:38.655Z,1007.1
2023-04-19T10:51:59.000Z,1007.1
2023-04-19T10:53:20.811Z,1007.1
2023-04-19T10:54:41.864Z,1007
2023-04-19T10:56:02.941Z,1006.9
2023-04-19T10:57:23.987Z,1007
2023-04-19T10:58:45.057Z,1007
2023-04-19T11:00:06.131Z,1007
2023-04-19T11:01:27.194Z,1007
2023-04-19T11:02:48.000Z,1006.9
2023-04-19T11:04:08.366Z,1006.9
2023-04-19T11:05:28.000Z,1006.9
2023-04-19T11:06:49.533Z,1006.9
2023-04-19T11:08:10.000Z,1006.9
2023-04-19T11:09:31.668Z,1006.9
2023-04-19T11:10:52.721Z,1006.9
2023-04-19T11:12:13.801Z,1006.9
2023-04-19T11:13:34.854Z,1006.8
2023-04-19T11:14:55.937Z,1006.8
2023-04-19T11:16:16.000Z,1006.9
2023-04-19T11:17:37.083Z,1006.9
2023-04-19T11:18:58.128Z,1006.9
2023-04-19T11:20:19.217Z,1006.9
2023-04-19T11:21:40.000Z,1006.9
2023-04-19T11:23:01.000Z,1006.8
2023-04-19T11:24:22.000Z,1006.8
2023-04-19T11:25:43.474Z,1006.8
2023-04-19T11:27:04.556Z,1006.8
2023-04-19T11:28:25.607Z,1006.8
2023-04-19T11:29:46.000Z,1006.7
2023-04-19T11:31:07.744Z,1006.7
2023-04-19T11:32:27.000Z,1006.7
2023-04-19T11:33:47.926Z,1006.7
2023-04-19T11:35:08.034Z,1006.7
2023-04-19T11:36:28.113Z,1006.7
2023-04-19T11:37:48.201Z,1006.7
2023-04-19T11:39:08.280Z,1006.7
2023-04-19T11:40:29.343Z,1006.6
2023-04-19T11:41:50.431Z,1006.6
2023-04-19T11:43:11.469Z,1006.6
2023-04-19T11:44:32.538Z,1006.6
2023-04-19T11:45:53.614Z,1006.6
2023-04-19T11:47:14.000Z,1006.6
2023-04-19T11:48:35.755Z,1006.6
2023-04-19T11:49:56.830Z,1006.5
2023-04-19T11:51:17.885Z,1006.6
2023-04-19T11:52:38.966Z,1006.6
2023-04-19T11:54:00.024Z,1006.6
2023-04-19T11:55:21.097Z,1006.6
2023-04-19T11:56:41.172Z,1006.5
2023-04-19T11:58:02.257Z,1006.6
2023-04-19T11:59:23.321Z,1006.6
2023-04-19T12:00:44.372Z,1006.5
2023-04-19T12:02:05.000Z,1006.5
2023-04-19T12:03:26.503Z,1006.5
2023-04-19T12:04:47.610Z,1006.5
2023-04-19T12:06:07.689Z,1006.4
2023-04-19T12:07:27.771Z,1006.4
2023-04-19T12:08:47.879Z,1006.3
2023-04-19T12:10:07.939Z,1006.4
2023-04-19T12:11:29.008Z,1006.5
2023-04-19T12:12:50.000Z,1006.4
2023-04-19T12:15:32.227Z,1006.5
2023-04-19T12:16:53.318Z,1006.4
2023-04-19T12:18:14.355Z,1006.4
2023-04-19T12:19:35.000Z,1006.4
2023-04-19T12:20:56.000Z,1006.4
2023-04-19T12:22:17.579Z,1006.4
2023-04-19T12:23:38.000Z,1006.3
2023-04-19T12:24:59.705Z,1006.3
2023-04-19T12:26:20.765Z,1006.3
2023-04-19T12:27:40.854Z,1006.4
2023-04-19T12:29:01.000Z,1006.4
2023-04-19T12:30:22.997Z,1006.4
2023-04-19T12:31:44.065Z,1006.4
2023-04-19T12:33:05.145Z,1006.3
2023-04-19T12:34:26.000Z,1006.3
2023-04-19T12:35:47.261Z,1006.3
2023-04-19T12:37:08.316Z,1006.3
2023-04-19T12:38:29.547Z,1006.3
2023-04-19T12:39:49.000Z,1006.3
2023-04-19T12:41:09.730Z,1006.3
2023-04-19T12:42:29.000Z,1006.2
2023-04-19T12:43:50.879Z,1006.2
2023-04-19T12:45:11.000Z,1006.1
2023-04-19T12:46:33.002Z,1006.1
2023-04-19T12:47:54.050Z,1006.2
2023-04-19T12:49:15.144Z,1006.1
2023-04-19T12:50:36.202Z,1006.1
2023-04-19T12:51:57.000Z,1006.1
2023-04-19T12:53:18.000Z,1006
2023-04-19T12:54:39.412Z,1006
2023-04-19T12:56:00.476Z,1006
2023-04-19T12:57:21.530Z,1005.9
2023-04-19T12:58:42.600Z,1006
2023-04-19T13:00:02.692Z,1005.9
2023-04-19T13:01:23.765Z,1006
2023-04-19T13:02:44.821Z,1005.9
2023-04-19T13:04:05.893Z,1005.9
2023-04-19T13:05:26.957Z,1005.9
2023-04-19T13:06:48.021Z,1005.9
2023-04-19T13:08:09.112Z,1005.9
2023-04-19T13:09:30.330Z,1005.9
2023-04-19T13:10:50.421Z,1005.9
2023-04-19T13:12:11.000Z,1005.8
2023-04-19T13:13:32.550Z,1005.8
2023-04-19T13:14:53.622Z,1005.7
2023-04-19T13:16:14.696Z,1005.8
2023-04-19T13:17:35.750Z,1005.8
2023-04-19T13:18:56.831Z,1005.8
2023-04-19T13:20:17.000Z,1005.7
2023-04-19T13:21:38.952Z,1005.7
2023-04-19T13:23:00.000Z,1005.7
2023-04-19T13:24:21.096Z,1005.7
2023-04-19T13:25:42.156Z,1005.7
2023-04-19T13:27:03.232Z,1005.7
2023-04-19T13:28:23.304Z,1005.6
2023-04-19T13:29:44.371Z,1005.7
2023-04-19T13:31:05.000Z,1005.7
2023-04-19T13:32:26.000Z,1005.7
2023-04-19T13:33:47.555Z,1005.7
2023-04-19T13:35:08.639Z,1005.7
2023-04-19T13:36:29.714Z,1005.8
2023-04-19T13:37:49.793Z,1005.8
2023-04-19T13:39:09.881Z,1005.8
2023-04-19T13:40:29.964Z,1005.8
2023-04-19T13:41:50.049Z,1005.8
2023-04-19T13:43:11.129Z,1005.7
2023-04-19T13:44:32.175Z,1005.7
2023-04-19T13:45:53.252Z,1005.7
2023-04-19T13:47:14.314Z,1005.6
2023-04-19T13:48:35.382Z,1005.6
2023-04-19T13:49:56.000Z,1005.6
2023-04-19T13:51:17.516Z,1005.6
2023-04-19T13:52:38.000Z,1005.5
2023-04-19T13:53:59.655Z,1005.5
2023-04-19T13:55:20.713Z,1005.5
2023-04-19T13:56:41.787Z,1005.4
2023-04-19T13:58:02.000Z,1005.4
2023-04-19T13:59:22.947Z,1005.4
2023-04-19T14:00:44.006Z,1005.3
2023-04-19T14:02:05.081Z,1005.3
2023-04-19T14:03:26.142Z,1005.3
2023-04-19T14:04:47.196Z,1005.3
2023-04-19T14:06:08.289Z,1005.3
2023-04-19T14:07:29.354Z,1005.2
2023-04-19T14:08:49.456Z,1005.2
2023-04-19T14:10:09.515Z,1005.3
2023-04-19T14:11:29.000Z,1005.3
2023-04-19T14:12:49.704Z,1005.2
2023-04-19T14:14:10.000Z,1005.2
2023-04-19T14:15:31.838Z,1005.2
2023-04-19T14:16:52.904Z,1005.1
2023-04-19T14:18:13.977Z,1005.2
2023-04-19T14:19:35.000Z,1005.2
2023-04-19T14:20:56.110Z,1005.2
2023-04-19T14:22:17.000Z,1005.2
2023-04-19T14:23:38.252Z,1005.2
2023-04-19T14:24:59.000Z,1005.1
2023-04-19T14:26:20.370Z,1005.1
2023-04-19T14:27:41.000Z,1005.2
2023-04-19T14:29:02.489Z,1005.1
2023-04-19T14:30:22.569Z,1005.1
2023-04-19T14:31:43.654Z,1005.1
2023-04-19T14:33:04.000Z,1005.2
2023-04-19T14:34:25.802Z,1005.1
2023-04-19T14:35:46.861Z,1005.2
2023-04-19T14:37:07.939Z,1005.2
2023-04-19T14:38:29.000Z,1005.2
2023-04-19T14:39:49.097Z,1005.3
2023-04-19T14:41:09.182Z,1005.5
2023-04-19T14:42:30.387Z,1005.6
2023-04-19T14:43:50.467Z,1005.6
2023-04-19T14:45:11.000Z,1005.7
2023-04-19T14:46:32.611Z,1005.6
2023-04-19T14:47:53.665Z,1005.7
2023-04-19T14:49:14.735Z,1005.7
2023-04-19T14:50:35.795Z,1005.8
2023-04-19T14:51:56.862Z,1005.8
2023-04-19T14:53:17.947Z,1005.7
2023-04-19T14:54:38.991Z,1005.8
2023-04-19T14:56:00.063Z,1005.8
2023-04-19T14:57:21.000Z,1005.8
2023-04-19T14:58:42.201Z,1005.8
2023-04-19T15:00:03.263Z,1005.7
2023-04-19T15:01:23.347Z,1005.8
2023-04-19T15:04:05.472Z,1005.8
2023-04-19T15:05:26.552Z,1005.8
2023-04-19T15:06:47.632Z,1005.8
2023-04-19T15:08:08.694Z,1005.8
2023-04-19T15:09:29.762Z,1005.8
2023-04-19T15:10:50.824Z,1005.7
2023-04-19T15:12:10.917Z,1005.7
2023-04-19T15:13:31.000Z,1005.7
2023-04-19T15:14:52.061Z,1005.6
2023-04-19T15:16:13.000Z,1005.7
2023-04-19T15:17:34.198Z,1005.6
2023-04-19T15:18:55.000Z,1005.6
2023-04-19T15:20:16.328Z,1005.7
2023-04-19T15:21:37.376Z,1005.7
2023-04-19T15:22:58.454Z,1005.7
2023-04-19T15:24:19.000Z,1005.6
2023-04-19T15:25:40.612Z,1005.6
2023-04-19T15:27:01.669Z,1005.6
2023-04-19T15:28:22.726Z,1005.6
2023-04-19T15:29:43.000Z,1005.6
2023-04-19T15:31:04.979Z,1005.6
2023-04-19T15:32:26.000Z,1005.6
2023-04-19T15:33:47.124Z,1005.6
2023-04-19T15:35:08.188Z,1005.6
2023-04-19T15:36:29.256Z,1005.5
2023-04-19T15:37:50.341Z,1005.5
2023-04-19T15:39:11.389Z,1005.5
2023-04-19T15:40:31.483Z,1005.4
2023-04-19T15:41:51.562Z,1005.4
2023-04-19T15:43:12.651Z,1005.3
2023-04-19T15:44:33.717Z,1005.3
2023-04-19T15:45:54.000Z,1005.3
2023-04-19T15:47:14.862Z,1005.3
2023-04-19T15:48:35.937Z,1005.3
2023-04-19T15:49:56.991Z,1005.2
2023-04-19T15:51:18.049Z,1005.2
2023-04-19T15:52:39.138Z,1005.2
2023-04-19T15:54:00.000Z,1005.2
2023-04-19T15:55:21.240Z,1005.2
2023-04-19T15:56:42.333Z,1005.2
2023-04-19T15:58:03.404Z,1005.2
2023-04-19T16:00:45.543Z,1005.2
2023-04-19T16:02:06.000Z,1005.2
2023-04-19T16:03:27.681Z,1005.2
2023-04-19T16:04:47.747Z,1005.2
2023-04-19T16:06:08.817Z,1005.2
2023-04-19T16:07:29.890Z,1005.2
2023-04-19T16:08:50.945Z,1005.2
2023-04-19T16:10:11.056Z,1005.1
2023-04-19T16:11:31.107Z,1005.1
2023-04-19T16:12:51.241Z,1005.1
2023-04-19T16:14:11.305Z,1005.1
2023-04-19T16:15:31.413Z,1005.1
2023-04-19T16:16:51.496Z,1005.2
2023-04-19T16:18:12.000Z,1005.1
2023-04-19T16:19:33.617Z,1005.1
2023-04-19T16:20:54.695Z,1005.1
2023-04-19T16:22:15.764Z,1005.1
2023-04-19T16:23:36.828Z,1005.1
2023-04-19T16:26:18.972Z,1005.1
2023-04-19T16:27:40.042Z,1005.1
2023-04-19T16:29:01.081Z,1005
2023-04-19T16:30:22.162Z,1005.1
2023-04-19T16:31:43.241Z,1005.1
2023-04-19T16:33:04.311Z,1005.1
2023-04-19T16:34:24.390Z,1005.1
2023-04-19T16:35:45.435Z,1005.1
2023-04-19T16:37:06.508Z,1005.1
2023-04-19T16:38:27.574Z,1005.1
2023-04-19T16:39:48.647Z,1005
2023-04-19T16:41:09.717Z,1005
2023-04-19T16:42:30.775Z,1005
2023-04-19T16:43:51.854Z,1005
2023-04-19T16:45:11.950Z,1005
2023-04-19T16:46:32.030Z,1005
2023-04-19T16:47:53.101Z,1005
2023-04-19T16:49:14.171Z,1005
2023-04-19T16:50:35.242Z,1005
2023-04-19T16:51:56.290Z,1005
2023-04-19T16:53:17.364Z,1005
2023-04-19T16:54:38.435Z,1005
2023-04-19T16:55:59.491Z,1005
2023-04-19T16:57:20.555Z,1005
2023-04-19T16:58:41.626Z,1005
2023-04-19T17:00:02.698Z,1005
2023-04-19T17:01:23.763Z,1005
2023-04-19T17:02:44.833Z,1004.9
2023-04-19T17:04:04.914Z,1004.9
2023-04-19T17:05:25.987Z,1004.9
2023-04-19T17:06:47.063Z,1004.9
2023-04-19T17:08:08.119Z,1004.9
2023-04-19T17:09:29.163Z,1004.9
2023-04-19T17:10:50.256Z,1004.9
2023-04-19T17:12:11.318Z,1004.9
2023-04-19T17:13:31.407Z,1004.9
2023-04-19T17:14:51.507Z,1004.9
2023-04-19T17:16:11.580Z,1004.9
2023-04-19T17:17:31.676Z,1004.9
2023-04-19T17:18:51.765Z,1004.8
2023-04-19T17:20:11.851Z,1004.8
2023-04-19T17:21:32.905Z,1004.8
2023-04-19T17:22:53.978Z,1004.8
2023-04-19T17:24:15.027Z,1004.8
2023-04-19T17:25:36.122Z,1004.8
2023-04-19T17:26:57.181Z,1004.9
2023-04-19T17:28:18.263Z,1004.9
2023-04-19T17:29:39.332Z,1004.9
2023-04-19T17:31:00.401Z,1004.9
2023-04-19T17:32:21.463Z,1004.9
2023-04-19T17:33:42.535Z,1004.9
2023-04-19T17:35:03.589Z,1004.9
2023-04-19T17:36:24.651Z,1004.9
2023-04-19T17:37:45.715Z,1004.9
2023-04-19T17:39:05.798Z,1004.9
2023-04-19T17:40:26.881Z,1004.9
2023-04-19T17:41:47.939Z,1004.9
2023-04-19T17:43:09.010Z,1005
2023-04-19T17:44:30.000Z,1004.9
2023-04-19T17:45:51.127Z,1004.9
2023-04-19T17:47:11.241Z,1004.9
2023-04-19T17:48:31.308Z,1004.9
2023-04-19T17:49:51.410Z,1004.9
2023-04-19T17:51:11.478Z,1004.9
2023-04-19T17:52:32.000Z,1004.9
2023-04-19T17:53:53.620Z,1004.9
2023-04-19T17:55:14.685Z,1004.9
2023-04-19T17:56:35.761Z,1004.9
2023-04-19T17:57:56.819Z,1004.8
2023-04-19T17:59:17.886Z,1004.8
2023-04-19T18:00:38.959Z,1004.8
2023-04-19T18:02:00.020Z,1004.8
2023-04-19T18:03:21.096Z,1004.8
2023-04-19T18:04:42.126Z,1004.9
2023-04-19T18:06:03.221Z,1004.9
2023-04-19T18:08:45.350Z,1004.9
2023-04-19T18:10:05.426Z,1004.9
2023-04-19T18:11:26.489Z,1004.9
2023-04-19T18:12:47.564Z,1004.9
2023-04-19T18:14:08.631Z,1004.9
2023-04-19T18:15:29.686Z,1004.9
2023-04-19T18:16:50.762Z,1004.9
2023-04-19T18:18:11.825Z,1004.9
2023-04-19T18:19:31.902Z,1004.9
2023-04-19T18:20:52.002Z,1004.9
2023-04-19T18:22:13.066Z,1004.9
2023-04-19T18:23:34.129Z,1004.8
2023-04-19T18:24:54.237Z,1004.8
2023-04-19T18:26:14.359Z,1004.8
2023-04-19T18:27:35.470Z,1004.8
2023-04-19T18:28:56.572Z,1004.8
2023-04-19T18:30:17.639Z,1004.8
2023-04-19T18:31:38.759Z,1004.8
2023-04-19T18:32:59.863Z,1004.8
2023-04-19T18:34:20.924Z,1004.8
2023-04-19T18:35:42.038Z,1004.8
2023-04-19T18:37:03.162Z,1004.8
2023-04-19T18:38:24.267Z,1004.8
2023-04-19T18:39:45.362Z,1004.8
2023-04-19T18:41:06.489Z,1004.8
2023-04-19T18:42:27.604Z,1004.8
2023-04-19T18:43:47.726Z,1004.8
2023-04-19T18:45:08.821Z,1004.8
2023-04-19T18:46:29.912Z,1004.8
2023-04-19T18:47:51.052Z,1004.8
2023-04-19T18:49:12.165Z,1004.8
2023-04-19T18:50:33.272Z,1004.8
2023-04-19T18:51:54.392Z,1004.8
2023-04-19T18:53:14.505Z,1004.9
2023-04-19T18:54:34.000Z,1004.9
2023-04-19T18:55:55.766Z,1004.9
2023-04-19T18:57:16.873Z,1005
2023-04-19T18:58:37.992Z,1004.9
2023-04-19T18:59:59.066Z,1004.9
2023-04-19T19:01:20.206Z,1004.9
2023-04-19T19:02:41.310Z,1005
2023-04-19T19:04:02.415Z,1005
2023-04-19T19:05:23.521Z,1005
2023-04-19T19:06:44.645Z,1005
2023-04-19T19:08:05.743Z,1005
2023-04-19T19:09:26.857Z,1005
2023-04-19T19:10:47.964Z,1005
2023-04-19T19:12:08.081Z,1005
2023-04-19T19:13:29.204Z,1005.1
2023-04-19T19:14:50.313Z,1005.1
2023-04-19T19:16:11.000Z,1005.1
2023-04-19T19:17:32.520Z,1005.1
2023-04-19T19:18:53.614Z,1005.1
2023-04-19T19:20:14.721Z,1005.1
2023-04-19T19:21:34.863Z,1005.1
2023-04-19T19:22:55.006Z,1005.1
2023-04-19T19:24:15.135Z,1005.1
2023-04-19T19:26:57.484Z,1005.1
2023-04-19T19:28:17.623Z,1005.1
2023-04-19T19:29:37.732Z,1005.2
2023-04-19T19:30:58.873Z,1005.2
2023-04-19T19:32:19.967Z,1005.2
2023-04-19T19:33:41.084Z,1005.2
2023-04-19T19:35:02.181Z,1005.2
2023-04-19T19:36:23.306Z,1005.2
2023-04-19T19:37:44.393Z,1005.2
2023-04-19T19:39:05.517Z,1005.2
2023-04-19T19:40:26.601Z,1005.1
2023-04-19T19:41:47.746Z,1005.2
2023-04-19T19:43:08.847Z,1005.2
2023-04-19T19:44:29.971Z,1005.2
2023-04-19T19:45:51.000Z,1005.2
2023-04-19T19:47:11.194Z,1005.2
2023-04-19T19:48:32.305Z,1005.2
2023-04-19T19:49:53.420Z,1005.2
2023-04-19T19:51:14.527Z,1005.1
2023-04-19T19:52:35.604Z,1005.1
2023-04-19T19:53:56.000Z,1005.1
2023-04-19T19:55:17.855Z,1005.1
2023-04-19T19:56:37.991Z,1005.1
2023-04-19T19:57:58.118Z,1005.1
2023-04-19T19:59:18.249Z,1005.1
2023-04-19T20:00:38.378Z,1005.1
2023-04-19T20:01:59.476Z,1005.1
2023-04-19T20:03:20.599Z,1005.1
2023-04-19T20:04:41.700Z,1005.1
2023-04-19T20:06:02.793Z,1005.1
2023-04-19T20:07:23.900Z,1005.1
2023-04-19T20:08:45.044Z,1005
2023-04-19T20:10:06.000Z,1005
2023-04-19T20:12:48.340Z,1005
2023-04-19T20:28:09.295Z,1005
2023-04-19T20:43:30.290Z,1005
2023-04-19T20:58:51.000Z,1005
2023-04-19T21:14:11.248Z,1004.9
2023-04-19T21:29:32.216Z,1004.9
2023-04-19T21:44:53.187Z,1004.8
2023-04-19T22:00:14.164Z,1004.8
2023-04-19T22:15:35.135Z,1004.8
2023-04-19T22:30:56.000Z,1004.8
2023-04-19T22:46:17.077Z,1004.7
2023-04-19T23:01:38.035Z,1004.7
2023-04-19T23:16:58.000Z,1004.6
2023-04-19T23:32:18.011Z,1004.6
2023-04-19T23:47:38.013Z,1004.6
